Time;durP1;ratioP1;P1;durP2;ratioP2;P2;SDS_P1;SDS_P2;PMS_P1;PMS_P2;Temp;Humidity;BMP_temperature;BMP_pressure;BME280_temperature;BME280_humidity;BME280_pressure;Samples;Min_cycle;Max_cycle;Signal;HPM_P1;HPM_P2
2023/10/24 00:01:33;;;;;;;17.10;9.90;;;11.20;99.90;;;;;;5021827;28;20186;-85
2023/10/24 00:03:58;;;;;;;12.57;9.27;;;11.20;99.90;;;;;;5021010;28;20182;-86
2023/10/24 00:06:24;;;;;;;11.35;9.05;;;11.20;99.90;;;;;;5010666;28;20326;-87
2023/10/24 00:08:50;;;;;;;14.02;10.05;;;11.30;99.90;;;;;;5025938;28;20206;-86
2023/10/24 00:11:15;;;;;;;11.40;9.43;;;11.20;99.90;;;;;;5018185;28;20183;-87
2023/10/24 00:13:41;;;;;;;10.50;9.40;;;11.20;99.90;;;;;;5012004;28;20191;-86
2023/10/24 00:16:07;;;;;;;11.57;9.40;;;11.30;99.90;;;;;;5022010;28;20285;-86
2023/10/24 00:18:32;;;;;;;10.18;8.95;;;11.20;99.90;;;;;;5013804;28;20608;-86
2023/10/24 00:20:59;;;;;;;12.77;8.65;;;11.20;99.90;;;;;;5020637;28;20266;-89
2023/10/24 00:23:25;;;;;;;10.30;8.65;;;11.30;99.90;;;;;;5014930;28;20270;-86
2023/10/24 00:25:51;;;;;;;11.57;8.43;;;11.20;99.90;;;;;;5015601;28;20601;-85
2023/10/24 00:28:19;;;;;;;14.57;9.90;;;11.20;99.90;;;;;;5021424;28;20249;-85
2023/10/24 00:30:45;;;;;;;13.13;9.32;;;11.20;99.90;;;;;;5027336;28;20187;-86
2023/10/24 00:33:10;;;;;;;13.65;9.07;;;11.20;99.90;;;;;;5016645;28;20179;-85
2023/10/24 00:35:36;;;;;;;10.50;8.98;;;11.20;99.90;;;;;;5012865;28;20289;-87
2023/10/24 00:38:02;;;;;;;10.25;9.25;;;11.20;99.90;;;;;;5014432;28;20709;-85
2023/10/24 00:40:28;;;;;;;12.05;9.18;;;11.20;99.90;;;;;;5004989;28;20614;-86
2023/10/24 00:42:53;;;;;;;15.82;9.00;;;11.20;99.90;;;;;;5012864;28;20198;-87
2023/10/24 00:45:19;;;;;;;10.95;9.32;;;11.20;99.90;;;;;;5019862;28;20241;-87
2023/10/24 00:47:45;;;;;;;10.95;8.68;;;11.20;99.90;;;;;;5018027;28;20224;-86
2023/10/24 00:50:12;;;;;;;10.88;8.60;;;11.20;99.90;;;;;;5015656;28;20246;-86
2023/10/24 00:52:42;;;;;;;11.10;8.18;;;11.20;99.90;;;;;;5020317;28;20206;-86
2023/10/24 00:55:08;;;;;;;13.25;8.65;;;11.20;99.90;;;;;;5014651;28;20214;-84
2023/10/24 00:57:35;;;;;;;13.43;8.57;;;11.20;99.90;;;;;;5022941;28;20231;-85
2023/10/24 01:00:01;;;;;;;13.68;9.35;;;11.20;99.90;;;;;;5035435;28;20179;-85
2023/10/24 01:02:27;;;;;;;11.60;8.68;;;11.20;99.90;;;;;;5015796;28;20230;-86
2023/10/24 01:04:54;;;;;;;11.02;8.73;;;11.20;99.90;;;;;;5014781;28;20259;-84
2023/10/24 01:07:20;;;;;;;12.32;7.78;;;11.20;99.90;;;;;;5017805;28;20195;-84
2023/10/24 01:09:46;;;;;;;10.77;9.68;;;11.20;99.90;;;;;;5048167;28;20218;-85
2023/10/24 01:12:12;;;;;;;15.05;8.35;;;11.20;99.90;;;;;;5012730;28;20186;-85
2023/10/24 01:14:39;;;;;;;9.55;8.45;;;11.20;99.90;;;;;;5020133;28;20214;-84
2023/10/24 01:17:12;;;;;;;12.57;8.95;;;11.20;99.90;;;;;;5028984;28;20206;-85
2023/10/24 01:19:38;;;;;;;10.77;9.02;;;11.20;99.90;;;;;;5019396;28;20270;-86
2023/10/24 01:22:04;;;;;;;9.77;8.25;;;11.20;99.90;;;;;;5016233;28;20277;-86
2023/10/24 01:24:30;;;;;;;10.35;8.40;;;11.20;99.90;;;;;;5012402;28;20553;-84
2023/10/24 01:26:57;;;;;;;12.07;8.25;;;11.20;99.90;;;;;;5016940;28;20911;-84
2023/10/24 01:29:23;;;;;;;12.82;8.23;;;11.20;99.90;;;;;;5010720;28;20301;-85
2023/10/24 01:31:49;;;;;;;10.07;8.00;;;11.20;99.90;;;;;;4999169;28;20271;-84
2023/10/24 01:34:15;;;;;;;12.23;7.80;;;11.20;99.90;;;;;;5011676;28;20531;-83
2023/10/24 01:36:40;;;;;;;10.65;7.95;;;11.20;99.90;;;;;;5019749;28;20233;-84
2023/10/24 01:39:07;;;;;;;12.20;7.93;;;11.30;99.90;;;;;;5022727;28;20197;-82
2023/10/24 01:41:33;;;;;;;10.75;8.00;;;11.20;99.90;;;;;;5017152;28;20812;-83
2023/10/24 01:43:59;;;;;;;9.15;7.35;;;11.20;99.90;;;;;;5018016;28;20191;-83
2023/10/24 01:46:25;;;;;;;11.30;7.65;;;11.20;99.90;;;;;;5013491;28;20183;-82
2023/10/24 01:48:51;;;;;;;14.43;7.30;;;11.20;99.90;;;;;;5017945;28;20285;-83
2023/10/24 01:51:17;;;;;;;8.73;6.85;;;11.20;99.90;;;;;;5026102;28;20217;-84
2023/10/24 01:53:42;;;;;;;13.15;7.75;;;11.20;99.90;;;;;;5015528;28;20274;-84
2023/10/24 01:56:10;;;;;;;10.73;7.32;;;11.20;99.90;;;;;;5017414;28;20318;-84
2023/10/24 01:58:36;;;;;;;10.35;7.03;;;11.30;99.90;;;;;;5024423;28;20649;-85
2023/10/24 02:01:02;;;;;;;8.95;7.22;;;11.30;99.90;;;;;;5030339;28;20314;-83
2023/10/24 02:03:28;;;;;;;9.68;7.03;;;11.30;99.90;;;;;;5018317;28;20195;-83
2023/10/24 02:05:54;;;;;;;11.48;7.00;;;11.30;99.90;;;;;;5017089;28;20193;-86
2023/10/24 02:08:20;;;;;;;11.48;6.20;;;11.40;99.90;;;;;;5023166;28;20240;-84
2023/10/24 02:10:45;;;;;;;8.85;6.85;;;11.40;99.90;;;;;;5029153;28;20253;-84
2023/10/24 02:13:11;;;;;;;11.50;6.80;;;11.40;99.90;;;;;;5012184;28;20221;-83
2023/10/24 02:15:39;;;;;;;11.40;6.50;;;11.40;99.90;;;;;;5017030;28;20191;-84
2023/10/24 02:18:05;;;;;;;13.10;6.50;;;11.40;99.90;;;;;;5031956;28;20277;-84
2023/10/24 02:20:32;;;;;;;12.00;6.97;;;11.30;99.90;;;;;;5028250;28;20574;-85
2023/10/24 02:22:57;;;;;;;10.05;6.38;;;11.30;99.90;;;;;;5017346;28;20182;-83
2023/10/24 02:25:23;;;;;;;8.45;6.43;;;11.30;99.90;;;;;;5015393;28;20676;-86
2023/10/24 02:27:49;;;;;;;10.98;7.50;;;11.30;99.90;;;;;;5020445;28;20187;-86
2023/10/24 02:30:15;;;;;;;11.90;6.50;;;11.30;99.90;;;;;;5017807;28;20207;-83
2023/10/24 02:32:40;;;;;;;10.77;6.15;;;11.40;99.90;;;;;;5023713;28;20615;-85
2023/10/24 02:35:06;;;;;;;11.32;6.82;;;11.30;99.90;;;;;;5023469;28;20183;-83
2023/10/24 02:37:32;;;;;;;8.77;6.35;;;11.40;99.90;;;;;;5023605;28;20192;-86
2023/10/24 02:39:58;;;;;;;9.38;5.88;;;11.40;99.90;;;;;;5016586;28;20198;-84
2023/10/24 02:42:23;;;;;;;12.15;6.55;;;11.40;99.90;;;;;;5033713;28;20218;-84
2023/10/24 02:44:49;;;;;;;10.00;6.45;;;11.40;99.90;;;;;;5019439;28;20198;-83
2023/10/24 02:47:15;;;;;;;9.90;6.10;;;11.30;99.90;;;;;;5016728;28;20206;-84
2023/10/24 02:49:41;;;;;;;9.23;6.07;;;11.30;99.90;;;;;;5023037;28;20673;-83
2023/10/24 02:52:07;;;;;;;13.82;6.18;;;11.30;99.90;;;;;;5014558;28;20183;-83
2023/10/24 02:54:32;;;;;;;10.00;6.30;;;11.30;99.90;;;;;;5015454;28;20191;-84
2023/10/24 02:56:58;;;;;;;14.90;6.53;;;11.30;99.90;;;;;;5014194;28;20689;-85
2023/10/24 02:59:24;;;;;;;8.65;6.50;;;11.30;99.90;;;;;;5009286;28;20192;-83
2023/10/24 03:01:49;;;;;;;12.27;6.25;;;11.40;99.90;;;;;;5020555;28;20491;-84
2023/10/24 03:04:15;;;;;;;10.82;6.07;;;11.30;99.90;;;;;;5015306;28;20183;-84
2023/10/24 03:06:41;;;;;;;9.18;6.25;;;11.40;99.90;;;;;;5013164;28;20183;-84
2023/10/24 03:09:07;;;;;;;7.95;5.72;;;11.40;99.90;;;;;;5014700;28;20218;-83
2023/10/24 03:11:33;;;;;;;8.75;5.90;;;11.40;99.90;;;;;;5031289;28;20245;-84
2023/10/24 03:13:59;;;;;;;7.95;5.78;;;11.40;99.90;;;;;;5014122;28;20561;-83
2023/10/24 03:16:25;;;;;;;11.73;6.40;;;11.40;99.90;;;;;;5015785;28;20266;-84
2023/10/24 03:18:51;;;;;;;14.73;6.53;;;11.30;99.90;;;;;;5013251;28;20190;-85
2023/10/24 03:21:17;;;;;;;9.98;5.80;;;11.30;99.90;;;;;;5034410;28;20182;-83
2023/10/24 03:23:46;;;;;;;12.88;6.65;;;11.20;99.90;;;;;;5025069;28;20793;-83
2023/10/24 03:26:11;;;;;;;11.73;5.93;;;11.30;99.90;;;;;;5013836;28;20266;-85
2023/10/24 03:28:37;;;;;;;16.65;6.47;;;11.20;99.90;;;;;;5025706;28;20305;-84
2023/10/24 03:31:06;;;;;;;11.57;6.10;;;11.20;99.90;;;;;;5019938;28;20183;-84
2023/10/24 03:33:32;;;;;;;11.38;5.97;;;11.20;99.90;;;;;;5005838;28;20191;-83
2023/10/24 03:35:58;;;;;;;11.55;6.50;;;11.20;99.90;;;;;;5014876;28;20190;-84
2023/10/24 03:38:25;;;;;;;11.18;6.50;;;11.20;99.90;;;;;;5019839;28;20194;-83
2023/10/24 03:40:52;;;;;;;12.40;6.30;;;11.20;99.90;;;;;;5018252;28;20526;-83
2023/10/24 03:43:18;;;;;;;11.88;5.90;;;11.20;99.90;;;;;;5014843;28;20222;-83
2023/10/24 03:45:44;;;;;;;9.57;6.20;;;11.20;99.90;;;;;;5014675;28;20205;-86
2023/10/24 03:48:10;;;;;;;10.63;5.75;;;11.20;99.90;;;;;;5013429;28;20626;-84
2023/10/24 03:50:45;;;;;;;8.07;5.78;;;11.20;99.90;;;;;;5022286;28;20232;-85
2023/10/24 03:53:10;;;;;;;10.48;5.63;;;11.20;99.90;;;;;;5014689;28;20237;-85
2023/10/24 03:55:36;;;;;;;12.52;5.82;;;11.20;99.90;;;;;;5014453;28;20901;-86
2023/10/24 03:58:02;;;;;;;8.80;6.18;;;11.20;99.90;;;;;;5021596;28;20194;-84
2023/10/24 04:00:27;;;;;;;11.02;6.03;;;11.20;99.90;;;;;;5013287;28;20183;-85
2023/10/24 04:02:54;;;;;;;8.40;6.03;;;11.10;99.90;;;;;;5014254;28;20198;-88
2023/10/24 04:05:19;;;;;;;10.52;6.07;;;11.10;99.90;;;;;;5018384;28;20182;-83
2023/10/24 04:07:45;;;;;;;8.07;5.72;;;11.10;99.90;;;;;;5019563;28;20190;-84
2023/10/24 04:10:15;;;;;;;10.15;6.15;;;11.10;99.90;;;;;;5013564;28;20669;-84
2023/10/24 04:12:43;;;;;;;8.07;5.93;;;11.10;99.90;;;;;;5013343;28;20502;-85
2023/10/24 04:15:09;;;;;;;12.02;5.90;;;11.10;99.90;;;;;;5022242;28;20256;-84
2023/10/24 04:17:35;;;;;;;9.05;6.28;;;11.20;99.90;;;;;;5029564;28;20614;-85
2023/10/24 04:20:02;;;;;;;17.90;6.72;;;11.20;99.90;;;;;;5006116;28;20279;-85
2023/10/24 04:22:29;;;;;;;7.70;6.03;;;11.20;99.90;;;;;;5050741;28;20211;-86
2023/10/24 04:24:54;;;;;;;9.35;6.00;;;11.20;99.90;;;;;;5013982;28;20194;-84
2023/10/24 04:27:20;;;;;;;11.10;6.13;;;11.10;99.90;;;;;;5020107;28;20187;-85
2023/10/24 04:29:46;;;;;;;13.15;6.65;;;11.10;99.90;;;;;;5013324;28;20661;-85
2023/10/24 04:32:12;;;;;;;12.10;7.07;;;11.10;99.90;;;;;;5016237;28;20183;-85
2023/10/24 04:34:38;;;;;;;11.63;5.97;;;11.10;99.90;;;;;;5017663;28;20660;-85
2023/10/24 04:37:04;;;;;;;12.93;5.63;;;11.10;99.90;;;;;;5014473;28;20187;-85
2023/10/24 04:39:30;;;;;;;10.15;5.53;;;11.10;99.90;;;;;;5022483;28;20183;-84
2023/10/24 04:41:58;;;;;;;7.65;5.60;;;11.00;99.90;;;;;;5014468;28;20186;-85
2023/10/24 04:44:24;;;;;;;10.32;5.38;;;11.00;99.90;;;;;;5012492;28;20187;-85
2023/10/24 04:46:52;;;;;;;10.88;5.60;;;11.00;99.90;;;;;;5014924;28;20187;-85
2023/10/24 04:49:17;;;;;;;15.50;6.30;;;11.00;99.90;;;;;;5020248;28;20221;-84
2023/10/24 04:51:43;;;;;;;11.20;5.88;;;11.00;99.90;;;;;;5008072;28;20735;-83
2023/10/24 04:54:09;;;;;;;9.65;5.20;;;10.90;99.90;;;;;;5009585;28;20554;-85
2023/10/24 04:56:35;;;;;;;13.73;6.28;;;11.00;99.90;;;;;;5006873;28;20233;-85
2023/10/24 04:59:02;;;;;;;10.77;5.07;;;11.00;99.90;;;;;;5021985;28;20518;-86
2023/10/24 05:01:37;;;;;;;8.43;5.20;;;11.10;99.90;;;;;;5017702;28;20257;-86
2023/10/24 05:04:07;;;;;;;11.20;5.10;;;11.10;99.90;;;;;;5014545;28;20256;-84
2023/10/24 05:06:33;;;;;;;11.43;5.25;;;11.10;99.90;;;;;;5011792;28;20265;-85
2023/10/24 05:08:59;;;;;;;8.52;5.38;;;11.10;99.90;;;;;;5029183;28;20245;-85
2023/10/24 05:11:25;;;;;;;8.75;4.50;;;11.10;99.90;;;;;;5016363;28;20198;-86
2023/10/24 05:13:51;;;;;;;10.60;7.97;;;11.20;99.90;;;;;;5024872;28;20183;-86
2023/10/24 05:16:16;;;;;;;11.10;4.53;;;11.20;99.90;;;;;;5021876;28;20224;-85
2023/10/24 05:18:42;;;;;;;12.27;5.10;;;11.20;99.90;;;;;;5022366;28;20199;-85
2023/10/24 05:21:08;;;;;;;6.65;4.53;;;11.20;99.90;;;;;;5017124;28;20605;-84
2023/10/24 05:23:34;;;;;;;11.25;5.10;;;11.20;99.90;;;;;;5005544;28;20183;-84
2023/10/24 05:25:59;;;;;;;9.40;4.32;;;11.20;99.90;;;;;;5018386;28;20191;-86
2023/10/24 05:28:25;;;;;;;8.98;4.38;;;11.20;99.90;;;;;;5011903;28;20180;-85
2023/10/24 05:30:51;;;;;;;6.43;4.47;;;11.20;99.90;;;;;;5016957;28;20191;-85
2023/10/24 05:33:17;;;;;;;9.32;4.60;;;11.20;99.90;;;;;;5020575;28;20190;-85
2023/10/24 05:35:47;;;;;;;7.43;4.30;;;11.20;99.90;;;;;;5009094;28;20184;-85
2023/10/24 05:38:14;;;;;;;9.35;4.00;;;11.20;99.90;;;;;;5019731;28;20646;-85
2023/10/24 05:40:40;;;;;;;7.45;4.50;;;11.20;99.90;;;;;;5019692;28;20183;-85
2023/10/24 05:43:06;;;;;;;7.53;4.55;;;11.30;99.90;;;;;;5015345;28;20269;-84
2023/10/24 05:45:32;;;;;;;8.43;4.70;;;11.30;99.90;;;;;;5013009;28;20237;-84
2023/10/24 05:47:58;;;;;;;8.65;4.40;;;11.30;99.90;;;;;;5018553;28;20567;-85
2023/10/24 05:50:24;;;;;;;9.55;4.40;;;11.40;99.90;;;;;;5020484;28;20221;-84
2023/10/24 05:52:50;;;;;;;8.60;4.65;;;11.40;99.90;;;;;;5029018;28;20504;-84
2023/10/24 05:55:17;;;;;;;11.77;5.03;;;11.40;99.90;;;;;;5019223;28;20214;-85
2023/10/24 05:57:42;;;;;;;9.45;5.13;;;11.40;99.90;;;;;;5048138;28;20709;-85
2023/10/24 06:00:09;;;;;;;7.57;4.72;;;11.40;99.90;;;;;;5029530;28;20269;-84
2023/10/24 06:02:36;;;;;;;11.45;5.10;;;11.40;99.90;;;;;;5017966;28;20246;-85
2023/10/24 06:05:02;;;;;;;10.55;5.00;;;11.40;99.90;;;;;;5024176;28;20585;-85
2023/10/24 06:07:28;;;;;;;7.22;4.57;;;11.40;99.90;;;;;;5011809;28;20629;-85
2023/10/24 06:09:54;;;;;;;10.82;4.60;;;11.40;99.90;;;;;;5016682;28;20227;-85
2023/10/24 06:12:21;;;;;;;8.20;4.80;;;11.40;99.90;;;;;;5028452;28;20219;-85
2023/10/24 06:14:47;;;;;;;10.85;4.70;;;11.40;99.90;;;;;;5022095;28;20191;-86
2023/10/24 06:17:17;;;;;;;9.45;4.93;;;11.40;99.90;;;;;;5019472;28;20282;-85
2023/10/24 06:19:43;;;;;;;7.90;4.90;;;11.40;99.90;;;;;;5012874;28;20193;-85
2023/10/24 06:22:09;;;;;;;9.98;4.43;;;11.40;99.90;;;;;;5029974;28;20194;-85
2023/10/24 06:24:36;;;;;;;13.35;4.47;;;11.40;99.90;;;;;;5013636;28;20187;-86
2023/10/24 06:27:01;;;;;;;13.68;5.45;;;11.40;99.90;;;;;;5029524;28;20617;-86
2023/10/24 06:29:30;;;;;;;10.80;5.50;;;11.50;99.90;;;;;;5024265;28;20272;-86
2023/10/24 06:31:56;;;;;;;11.60;5.97;;;11.40;99.90;;;;;;5022652;28;20183;-84
2023/10/24 06:34:23;;;;;;;9.15;5.65;;;11.50;99.90;;;;;;5019127;28;20222;-88
2023/10/24 06:36:49;;;;;;;11.70;6.07;;;11.50;99.90;;;;;;5027433;28;20285;-84
2023/10/24 06:39:15;;;;;;;14.30;6.03;;;11.50;99.90;;;;;;5036543;28;20218;-85
2023/10/24 06:41:40;;;;;;;12.32;6.25;;;11.50;99.90;;;;;;5015496;28;20179;-86
2023/10/24 06:44:06;;;;;;;13.00;5.97;;;11.50;99.90;;;;;;5015241;28;20187;-86
2023/10/24 06:46:31;;;;;;;13.88;6.43;;;11.60;99.90;;;;;;5016357;28;20232;-85
2023/10/24 06:48:57;;;;;;;13.98;6.47;;;11.60;99.90;;;;;;5028417;28;20242;-87
2023/10/24 06:51:24;;;;;;;12.90;6.35;;;11.60;99.90;;;;;;5017275;28;20191;-85
2023/10/24 06:53:49;;;;;;;10.15;5.88;;;11.50;99.90;;;;;;5021313;28;20176;-85
2023/10/24 06:56:15;;;;;;;11.82;5.53;;;11.60;99.90;;;;;;5031239;28;20284;-87
2023/10/24 06:58:41;;;;;;;10.10;5.80;;;11.60;99.90;;;;;;5015153;28;20532;-87
2023/10/24 07:01:07;;;;;;;11.85;6.53;;;11.60;99.90;;;;;;5020965;28;20642;-88
2023/10/24 07:03:34;;;;;;;11.57;6.35;;;11.60;99.90;;;;;;5020439;28;20274;-89
2023/10/24 07:06:00;;;;;;;11.68;6.20;;;11.60;99.90;;;;;;5013994;28;20187;-84
2023/10/24 07:08:26;;;;;;;10.00;5.18;;;11.60;99.90;;;;;;5015804;28;20187;-86
2023/10/24 07:10:52;;;;;;;12.23;6.20;;;11.60;99.90;;;;;;5022155;28;20245;-86
2023/10/24 07:13:19;;;;;;;9.70;5.90;;;11.60;99.90;;;;;;5024664;28;20199;-85
2023/10/24 07:15:45;;;;;;;8.15;5.22;;;11.60;99.90;;;;;;5020178;28;20183;-85
2023/10/24 07:18:11;;;;;;;10.23;5.90;;;11.60;99.90;;;;;;5024396;28;20198;-83
2023/10/24 07:20:38;;;;;;;12.23;6.05;;;11.70;99.90;;;;;;5019168;28;20189;-85
2023/10/24 07:23:06;;;;;;;9.73;5.47;;;11.70;99.90;;;;;;5016819;28;20622;-86
2023/10/24 07:25:32;;;;;;;12.32;5.85;;;11.70;99.90;;;;;;5007121;28;20187;-85
2023/10/24 07:27:58;;;;;;;13.85;6.05;;;11.70;99.90;;;;;;5015413;28;20191;-84
2023/10/24 07:30:24;;;;;;;8.93;5.90;;;11.80;99.90;;;;;;5020192;28;20657;-83
2023/10/24 07:32:53;;;;;;;9.35;5.20;;;11.80;99.90;;;;;;5014178;28;20327;-84
2023/10/24 07:35:20;;;;;;;10.25;5.50;;;11.80;99.90;;;;;;5017858;28;20240;-83
2023/10/24 07:37:46;;;;;;;14.38;5.82;;;11.80;99.90;;;;;;5028212;28;20191;-84
2023/10/24 07:40:12;;;;;;;11.82;6.13;;;11.90;99.90;;;;;;5019292;28;20574;-86
2023/10/24 07:42:37;;;;;;;8.40;5.18;;;11.90;99.90;;;;;;5025645;28;20946;-85
2023/10/24 07:45:06;;;;;;;10.07;5.28;;;11.90;99.90;;;;;;5021587;28;20544;-89
2023/10/24 07:47:31;;;;;;;12.18;5.15;;;11.90;99.90;;;;;;5013437;28;20179;-86
2023/10/24 07:49:59;;;;;;;11.02;5.28;;;12.00;99.90;;;;;;5020662;28;20584;-86
2023/10/24 07:52:26;;;;;;;12.85;5.03;;;12.00;99.90;;;;;;5024518;28;20207;-85
2023/10/24 07:54:51;;;;;;;7.72;4.88;;;12.00;99.90;;;;;;5017203;28;20194;-85
2023/10/24 07:57:17;;;;;;;8.93;5.07;;;12.10;99.90;;;;;;5026364;28;20324;-85
2023/10/24 07:59:43;;;;;;;10.32;5.07;;;12.10;99.90;;;;;;5040097;28;20286;-84
2023/10/24 08:02:08;;;;;;;7.88;4.53;;;12.10;99.90;;;;;;5022959;28;20179;-84
2023/10/24 08:04:34;;;;;;;9.32;5.10;;;12.10;99.90;;;;;;5030186;28;20195;-85
2023/10/24 08:07:03;;;;;;;9.27;4.00;;;12.20;99.90;;;;;;5021144;28;20266;-85
2023/10/24 08:09:28;;;;;;;13.18;5.35;;;12.20;99.90;;;;;;5013976;28;20238;-84
2023/10/24 08:11:54;;;;;;;11.40;5.10;;;12.20;99.90;;;;;;5030247;28;20617;-86
2023/10/24 08:14:20;;;;;;;10.23;4.88;;;12.30;99.90;;;;;;5023472;28;20190;-84
2023/10/24 08:16:45;;;;;;;10.23;4.85;;;12.30;99.90;;;;;;5014173;28;20194;-84
2023/10/24 08:19:11;;;;;;;10.38;4.95;;;12.30;99.90;;;;;;5014555;28;20187;-86
2023/10/24 08:21:37;;;;;;;9.63;5.00;;;12.30;99.90;;;;;;5019479;28;20293;-90
2023/10/24 08:24:03;;;;;;;11.25;5.07;;;12.40;99.90;;;;;;5018305;28;20669;-89
2023/10/24 08:26:29;;;;;;;11.68;4.57;;;12.40;99.90;;;;;;5013300;28;20502;-89
2023/10/24 08:28:54;;;;;;;9.25;4.57;;;12.40;99.90;;;;;;5021112;28;20205;-85
2023/10/24 08:31:20;;;;;;;8.27;4.32;;;12.50;99.90;;;;;;5010244;28;20187;-84
2023/10/24 08:33:46;;;;;;;7.88;4.40;;;12.50;99.90;;;;;;5028518;28;20186;-85
2023/10/24 08:36:11;;;;;;;8.32;4.57;;;12.50;99.90;;;;;;5021482;28;20179;-85
2023/10/24 08:38:37;;;;;;;11.43;4.75;;;12.50;99.90;;;;;;5015845;28;20258;-84
2023/10/24 08:41:03;;;;;;;8.90;4.40;;;12.50;99.90;;;;;;5029907;28;20326;-85
2023/10/24 08:43:29;;;;;;;11.52;4.30;;;12.50;99.90;;;;;;5032423;28;20269;-84
2023/10/24 08:45:57;;;;;;;7.13;4.18;;;12.60;99.90;;;;;;5024726;28;20282;-86
2023/10/24 08:48:24;;;;;;;10.85;4.38;;;12.60;99.90;;;;;;5014107;28;20618;-85
2023/10/24 08:50:50;;;;;;;9.82;4.53;;;12.60;99.90;;;;;;5013381;28;20198;-85
2023/10/24 08:53:16;;;;;;;8.32;4.40;;;12.60;99.90;;;;;;5013079;28;20290;-85
2023/10/24 08:55:54;;;;;;;8.48;3.97;;;12.70;99.90;;;;;;5018940;28;20265;-84
2023/10/24 08:58:20;;;;;;;5.95;3.92;;;12.70;99.90;;;;;;5022095;28;20320;-85
2023/10/24 09:00:50;;;;;;;7.55;4.13;;;12.80;99.90;;;;;;5019100;28;20187;-85
2023/10/24 09:03:17;;;;;;;8.25;4.18;;;12.80;99.90;;;;;;5015572;28;20183;-86
2023/10/24 09:05:46;;;;;;;7.25;3.90;;;12.80;99.90;;;;;;5024394;28;20302;-85
2023/10/24 09:08:13;;;;;;;11.32;4.32;;;12.90;99.90;;;;;;5014575;28;20190;-86
2023/10/24 09:10:39;;;;;;;6.60;4.22;;;12.90;99.90;;;;;;5014845;28;20654;-84
2023/10/24 09:13:08;;;;;;;9.40;4.45;;;12.90;99.90;;;;;;5013117;28;20197;-85
2023/10/24 09:15:36;;;;;;;9.40;4.15;;;12.90;99.90;;;;;;5033293;28;20217;-85
2023/10/24 09:18:05;;;;;;;7.70;3.90;;;13.00;99.90;;;;;;5012179;28;20187;-86
2023/10/24 09:20:32;;;;;;;7.20;4.13;;;13.00;99.90;;;;;;5023089;28;20183;-86
2023/10/24 09:23:09;;;;;;;7.43;3.70;;;13.00;99.90;;;;;;5021312;28;20194;-88
2023/10/24 09:25:36;;;;;;;8.95;3.95;;;13.00;99.90;;;;;;5021288;28;20656;-85
2023/10/24 09:28:15;;;;;;;8.02;3.90;;;13.00;99.90;;;;;;5028558;28;20681;-86
2023/10/24 09:30:41;;;;;;;8.10;3.85;;;13.00;99.90;;;;;;5011183;28;20206;-86
2023/10/24 09:33:06;;;;;;;9.82;3.60;;;13.00;99.90;;;;;;5028474;28;20183;-85
2023/10/24 09:35:35;;;;;;;8.57;4.13;;;13.10;99.90;;;;;;5017815;28;20277;-86
2023/10/24 09:38:03;;;;;;;4.88;3.50;;;13.10;99.90;;;;;;5027907;28;20187;-86
2023/10/24 09:40:41;;;;;;;7.53;3.58;;;13.20;99.90;;;;;;5020725;28;20186;-86
2023/10/24 09:43:20;;;;;;;5.93;3.58;;;13.10;99.90;;;;;;4996271;28;20195;-84
2023/10/24 09:45:47;;;;;;;10.68;3.90;;;13.20;99.90;;;;;;5011234;28;20717;-87
2023/10/24 09:48:16;;;;;;;6.75;3.75;;;13.20;99.90;;;;;;5016110;28;20206;-87
2023/10/24 09:50:42;;;;;;;6.57;3.58;;;13.30;99.90;;;;;;5020516;28;20298;-85
2023/10/24 09:53:09;;;;;;;6.43;3.42;;;13.20;99.90;;;;;;5022340;28;20175;-86
2023/10/24 09:55:36;;;;;;;10.38;3.53;;;13.20;99.90;;;;;;5015556;28;20186;-87
2023/10/24 09:58:04;;;;;;;8.40;3.80;;;13.30;99.90;;;;;;5021105;28;20202;-87
2023/10/24 10:00:32;;;;;;;6.20;3.55;;;13.30;99.90;;;;;;5023121;28;20194;-87
2023/10/24 10:02:58;;;;;;;5.20;3.13;;;13.30;99.90;;;;;;5031799;28;20183;-87
2023/10/24 10:05:28;;;;;;;6.53;3.40;;;13.30;99.90;;;;;;5016758;28;20285;-87
2023/10/24 10:07:56;;;;;;;6.88;3.55;;;13.30;99.90;;;;;;5011669;28;20634;-87
2023/10/24 10:10:23;;;;;;;7.25;3.72;;;13.30;99.90;;;;;;5018741;28;20215;-87
2023/10/24 10:12:55;;;;;;;5.50;3.40;;;13.30;99.90;;;;;;5008840;28;20175;-87
2023/10/24 10:16:07;;;;;;;6.57;3.25;;;13.40;99.90;;;;;;5016190;28;20199;-88
2023/10/24 10:19:11;;;;;;;6.97;2.80;;;13.30;99.90;;;;;;5014289;28;20194;-87
2023/10/24 10:22:04;;;;;;;5.63;3.28;;;13.30;99.90;;;;;;5015165;28;20202;-86
2023/10/24 10:24:30;;;;;;;6.03;3.17;;;13.30;99.90;;;;;;5032299;28;20576;-86
2023/10/24 10:27:03;;;;;;;7.75;3.50;;;13.40;99.90;;;;;;5016480;28;20180;-85
2023/10/24 10:29:58;;;;;;;4.18;2.80;;;13.40;99.90;;;;;;5026447;28;20214;-86
2023/10/24 10:32:48;;;;;;;6.85;2.55;;;13.40;99.90;;;;;;5024909;28;20225;-86
2023/10/24 10:35:13;;;;;;;5.65;2.80;;;13.40;99.90;;;;;;5025228;28;20654;-86
2023/10/24 10:37:39;;;;;;;5.22;2.95;;;13.40;99.90;;;;;;5023159;28;20278;-86
2023/10/24 10:40:22;;;;;;;9.75;2.65;;;13.40;99.90;;;;;;5015974;28;20578;-86
2023/10/24 10:42:49;;;;;;;4.38;2.50;;;13.40;99.90;;;;;;5018217;28;20602;-86
2023/10/24 10:45:32;;;;;;;4.80;2.70;;;13.50;99.90;;;;;;5032771;28;20240;-88
2023/10/24 10:48:04;;;;;;;4.93;3.10;;;13.50;99.90;;;;;;5023852;28;20194;-87
2023/10/24 10:50:35;;;;;;;7.35;2.90;;;13.60;99.90;;;;;;5015979;28;20265;-86
2023/10/24 10:53:12;;;;;;;6.22;2.75;;;13.60;99.90;;;;;;5031098;28;20186;-87
2023/10/24 10:56:30;;;;;;;7.35;3.00;;;13.70;99.90;;;;;;5020794;28;20174;-86
2023/10/24 10:59:31;;;;;;;3.80;2.92;;;13.70;99.90;;;;;;4972521;28;20196;-86
2023/10/24 11:02:12;;;;;;;5.32;2.72;;;13.80;99.90;;;;;;4965924;28;20658;-86
2023/10/24 11:04:38;;;;;;;5.63;2.70;;;13.80;99.90;;;;;;5005204;28;20198;-88
2023/10/24 11:07:04;;;;;;;5.38;2.78;;;13.80;99.90;;;;;;5018981;28;20237;-87
2023/10/24 11:09:35;;;;;;;3.47;2.05;;;13.80;99.90;;;;;;5013405;28;20309;-86
2023/10/24 11:12:26;;;;;;;2.88;2.30;;;13.80;99.90;;;;;;5010353;28;20569;-86
2023/10/24 11:15:07;;;;;;;5.70;2.50;;;13.80;99.90;;;;;;5009207;28;20211;-88
2023/10/24 11:17:34;;;;;;;4.78;2.58;;;13.80;99.90;;;;;;5010588;28;20236;-88
2023/10/24 11:20:01;;;;;;;5.85;2.30;;;13.80;99.90;;;;;;5020692;28;20183;-87
2023/10/24 11:22:27;;;;;;;6.93;2.47;;;13.70;99.90;;;;;;5021943;28;20190;-87
2023/10/24 11:24:52;;;;;;;6.40;2.33;;;13.70;99.90;;;;;;5020085;28;20246;-87
2023/10/24 11:27:22;;;;;;;4.53;2.30;;;13.70;99.90;;;;;;5030073;28;20174;-88
2023/10/24 11:29:49;;;;;;;5.90;2.70;;;13.70;99.90;;;;;;5024230;28;20207;-86
2023/10/24 11:32:19;;;;;;;5.63;2.33;;;13.70;99.90;;;;;;5023043;28;20179;-88
2023/10/24 11:34:45;;;;;;;4.35;2.40;;;13.70;99.90;;;;;;5020563;28;20228;-85
2023/10/24 11:37:12;;;;;;;11.95;2.70;;;13.70;99.90;;;;;;5015665;28;20633;-86
2023/10/24 11:39:41;;;;;;;5.38;2.53;;;13.70;99.90;;;;;;5026177;28;20178;-86
2023/10/24 11:42:07;;;;;;;6.00;2.42;;;13.60;99.90;;;;;;5024440;28;20190;-85
2023/10/24 11:44:33;;;;;;;4.97;2.13;;;13.60;99.90;;;;;;5019369;28;20637;-87
2023/10/24 11:47:04;;;;;;;4.00;2.15;;;13.60;99.90;;;;;;5012937;28;20622;-86
2023/10/24 11:49:36;;;;;;;5.95;2.67;;;13.60;99.90;;;;;;5014129;28;20218;-85
2023/10/24 11:52:04;;;;;;;3.58;2.05;;;13.50;99.90;;;;;;5029929;28;20186;-86
2023/10/24 11:54:30;;;;;;;5.10;2.50;;;13.50;99.90;;;;;;5008890;28;20211;-86
2023/10/24 11:56:56;;;;;;;5.50;2.58;;;13.50;99.90;;;;;;5020546;28;20230;-87
2023/10/24 11:59:22;;;;;;;5.15;2.42;;;13.50;99.90;;;;;;5025055;28;20195;-87
2023/10/24 12:01:49;;;;;;;4.60;2.42;;;13.50;99.90;;;;;;5016764;28;20583;-89
2023/10/24 12:04:15;;;;;;;4.22;2.10;;;13.50;99.90;;;;;;5008564;28;20221;-88
2023/10/24 12:06:41;;;;;;;6.82;2.45;;;13.50;99.90;;;;;;5022360;28;20483;-86
2023/10/24 12:09:07;;;;;;;7.15;2.20;;;13.50;99.90;;;;;;5022057;28;20289;-86
2023/10/24 12:11:33;;;;;;;6.13;2.58;;;13.60;99.90;;;;;;5014194;28;20193;-85
2023/10/24 12:14:00;;;;;;;4.88;2.63;;;13.60;99.90;;;;;;5014169;28;20183;-85
2023/10/24 12:16:29;;;;;;;7.60;2.60;;;13.60;99.90;;;;;;5029210;28;20502;-84
2023/10/24 12:18:56;;;;;;;8.38;2.47;;;13.60;99.90;;;;;;5021275;28;20274;-83
2023/10/24 12:21:22;;;;;;;10.23;3.05;;;13.50;99.90;;;;;;5013037;28;20570;-83
2023/10/24 12:23:48;;;;;;;6.88;2.72;;;13.60;99.90;;;;;;5012323;28;20194;-83
2023/10/24 12:26:14;;;;;;;6.55;2.95;;;13.60;99.90;;;;;;5014236;28;20187;-83
2023/10/24 12:28:42;;;;;;;5.72;2.65;;;13.60;99.90;;;;;;5013219;28;20228;-83
2023/10/24 12:31:09;;;;;;;7.15;2.55;;;13.60;99.90;;;;;;5010615;28;20210;-83
2023/10/24 12:33:35;;;;;;;3.72;2.20;;;13.60;99.90;;;;;;5012802;28;20274;-83
2023/10/24 12:36:01;;;;;;;5.00;2.60;;;13.60;99.90;;;;;;5021157;28;20277;-82
2023/10/24 12:38:27;;;;;;;6.18;2.45;;;13.60;99.90;;;;;;5013084;28;21630;-83
2023/10/24 12:40:53;;;;;;;7.22;2.78;;;13.60;99.90;;;;;;5013154;28;20622;-82
2023/10/24 12:43:19;;;;;;;5.70;2.42;;;13.60;99.90;;;;;;5029314;28;20191;-84
2023/10/24 12:45:44;;;;;;;6.10;2.47;;;13.60;99.90;;;;;;5012574;28;20187;-83